createdAt,value
2018-11-11T00:00:24.032Z,5.53
2018-11-11T00:02:52.178Z,5.77
2018-11-11T00:05:19.312Z,8.17
2018-11-11T00:07:46.436Z,6.87
2018-11-11T00:10:13.516Z,8.40
2018-11-11T00:12:40.622Z,6.87
2018-11-11T00:15:10.211Z,7.10
2018-11-11T00:17:37.300Z,6.63
2018-11-11T00:20:05.175Z,7.63
2018-11-11T00:22:32.257Z,6.93
2018-11-11T00:24:59.355Z,6.23
2018-11-11T00:27:26.447Z,7.23
2018-11-11T00:29:53.546Z,5.60
2018-11-11T00:32:20.648Z,7.37
2018-11-11T00:34:47.744Z,7.20
2018-11-11T00:37:14.840Z,6.10
2018-11-11T00:39:41.935Z,5.80
2018-11-11T00:42:09.024Z,7.07
2018-11-11T00:44:36.104Z,5.30
2018-11-11T00:47:03.233Z,5.33
2018-11-11T00:49:30.312Z,5.33
2018-11-11T00:51:57.384Z,7.93
2018-11-11T00:54:24.459Z,5.63
2018-11-11T00:56:51.580Z,7.43
2018-11-11T00:59:18.680Z,7.47
2018-11-11T01:01:45.780Z,6.77
2018-11-11T01:04:12.861Z,9.97
2018-11-11T01:06:40.260Z,7.43
2018-11-11T01:09:07.719Z,7.10
2018-11-11T01:11:34.807Z,7.90
2018-11-11T01:14:01.990Z,6.50
2018-11-11T01:16:29.084Z,6.83
2018-11-11T01:18:56.291Z,6.87
2018-11-11T01:21:23.384Z,6.57
2018-11-11T01:23:50.535Z,10.93
2018-11-11T01:26:17.627Z,7.03
2018-11-11T01:28:44.707Z,6.93
2018-11-11T01:31:11.804Z,6.83
2018-11-11T01:33:38.892Z,7.03
2018-11-11T01:36:06.008Z,6.77
2018-11-11T01:38:33.113Z,6.57
2018-11-11T01:41:00.191Z,8.40
2018-11-11T01:43:27.269Z,6.90
2018-11-11T01:45:54.340Z,6.53
2018-11-11T01:48:21.420Z,7.70
2018-11-11T01:50:48.485Z,7.70
2018-11-11T01:53:15.564Z,7.50
2018-11-11T01:55:42.648Z,7.03
2018-11-11T01:58:09.729Z,6.60
2018-11-11T02:00:36.872Z,8.80
2018-11-11T02:03:04.263Z,9.80
2018-11-11T02:05:31.356Z,7.83
2018-11-11T02:07:58.435Z,5.63
2018-11-11T02:10:25.538Z,7.30
2018-11-11T02:12:52.608Z,7.30
2018-11-11T02:15:19.692Z,10.87
2018-11-11T02:17:46.760Z,11.63
2018-11-11T02:20:17.219Z,9.77
2018-11-11T02:22:44.984Z,8.03
2018-11-11T02:25:12.061Z,7.37
2018-11-11T02:27:39.152Z,6.50
2018-11-11T02:30:09.716Z,11.77
2018-11-11T02:32:37.161Z,7.80
2018-11-11T02:35:04.947Z,14.83
2018-11-11T02:37:32.055Z,6.67
2018-11-11T02:39:59.115Z,9.90
2018-11-11T02:42:26.205Z,9.67
2018-11-11T02:44:53.280Z,8.77
2018-11-11T02:47:20.404Z,9.87
2018-11-11T02:49:47.491Z,10.60
2018-11-11T02:52:14.564Z,9.57
2018-11-11T02:54:41.632Z,6.17
2018-11-11T02:57:08.703Z,9.13
2018-11-11T02:59:35.854Z,10.03
2018-11-11T03:02:03.048Z,7.97
2018-11-11T03:04:30.259Z,10.37
2018-11-11T03:06:57.269Z,10.93
2018-11-11T03:09:24.356Z,9.63
2018-11-11T03:11:51.436Z,6.87
2018-11-11T03:14:18.516Z,9.77
2018-11-11T03:16:45.592Z,7.57
2018-11-11T03:19:12.748Z,10.73
2018-11-11T03:21:39.845Z,9.70
2018-11-11T03:24:06.924Z,8.33
2018-11-11T03:26:34.032Z,11.27
2018-11-11T03:29:01.100Z,9.50
2018-11-11T03:31:28.196Z,9.33
2018-11-11T03:33:55.278Z,16.23
2018-11-11T03:36:22.368Z,7.53
2018-11-11T03:38:49.435Z,7.37
2018-11-11T03:41:16.524Z,8.70
2018-11-11T03:43:43.796Z,10.87
2018-11-11T03:46:10.919Z,8.87
2018-11-11T03:48:38.024Z,11.10
2018-11-11T03:51:05.228Z,9.10
2018-11-11T03:53:32.324Z,14.13
2018-11-11T03:55:59.407Z,9.47
2018-11-11T03:58:26.498Z,11.97
2018-11-11T04:00:53.688Z,12.80
2018-11-11T04:03:20.784Z,9.63
2018-11-11T04:05:47.894Z,7.83
2018-11-11T04:08:14.973Z,9.53
2018-11-11T04:10:42.053Z,7.83
2018-11-11T04:13:09.131Z,9.33
2018-11-11T04:15:36.224Z,8.87
2018-11-11T04:18:03.334Z,9.67
2018-11-11T04:20:30.429Z,9.60
2018-11-11T04:22:57.528Z,8.63
2018-11-11T04:25:24.611Z,9.13
2018-11-11T04:27:51.712Z,11.50
2018-11-11T04:30:19.976Z,5.80
2018-11-11T04:32:47.084Z,9.50
2018-11-11T04:35:14.180Z,9.73
2018-11-11T04:37:41.286Z,7.07
2018-11-11T04:40:10.204Z,9.83
2018-11-11T04:42:37.660Z,8.67
2018-11-11T04:45:06.816Z,7.80
2018-11-11T04:47:33.889Z,11.13
2018-11-11T04:50:01.027Z,8.37
2018-11-11T04:52:28.120Z,8.23
2018-11-11T04:54:55.192Z,4.97
2018-11-11T04:57:22.286Z,10.23
2018-11-11T04:59:49.369Z,6.77
2018-11-11T05:02:16.488Z,7.63
2018-11-11T05:04:43.644Z,9.57
2018-11-11T05:07:10.653Z,8.97
2018-11-11T05:09:37.780Z,6.57
2018-11-11T05:12:04.856Z,6.60
2018-11-11T05:14:31.920Z,6.30
2018-11-11T05:16:59.032Z,6.93
2018-11-11T05:19:26.100Z,10.03
2018-11-11T05:21:53.258Z,7.13
2018-11-11T05:24:20.273Z,7.50
2018-11-11T05:26:47.356Z,8.90
2018-11-11T05:29:14.432Z,6.53
2018-11-11T05:31:41.520Z,6.77
2018-11-11T05:34:08.601Z,4.67
2018-11-11T05:36:35.677Z,7.93
2018-11-11T05:39:03.577Z,6.90
2018-11-11T05:41:30.656Z,5.80
2018-11-11T05:43:57.740Z,6.57
2018-11-11T05:46:24.829Z,5.27
2018-11-11T05:48:51.901Z,6.30
2018-11-11T05:51:18.968Z,5.47
2018-11-11T05:53:46.056Z,4.83
2018-11-11T05:56:13.144Z,4.83
2018-11-11T05:58:40.224Z,6.00
2018-11-11T06:01:07.311Z,6.00
2018-11-11T06:03:34.413Z,4.37
2018-11-11T06:06:01.514Z,4.90
2018-11-11T06:08:28.612Z,4.73
2018-11-11T06:10:55.708Z,3.70
2018-11-11T06:13:22.808Z,5.87
2018-11-11T06:15:49.880Z,2.53
2018-11-11T06:18:16.951Z,4.43
2018-11-11T06:20:44.025Z,5.70
2018-11-11T06:23:11.100Z,2.93
2018-11-11T06:25:38.170Z,4.10
2018-11-11T06:28:05.251Z,6.03
2018-11-11T06:30:32.348Z,8.20
2018-11-11T06:32:59.440Z,7.37
2018-11-11T06:35:26.532Z,7.33
2018-11-11T06:37:53.615Z,6.80
2018-11-11T06:40:20.696Z,4.63
2018-11-11T06:42:47.784Z,4.43
2018-11-11T06:45:15.174Z,4.47
2018-11-11T06:47:43.037Z,4.80
2018-11-11T06:50:11.325Z,5.07
2018-11-11T06:52:39.380Z,5.93
2018-11-11T06:55:06.516Z,4.40
2018-11-11T06:57:33.897Z,5.60
2018-11-11T07:00:00.981Z,6.13
2018-11-11T07:02:34.145Z,4.03
2018-11-11T07:05:01.797Z,3.40
2018-11-11T07:07:28.898Z,5.60
2018-11-11T07:09:55.972Z,6.70
2018-11-11T07:12:23.064Z,5.10
2018-11-11T07:14:50.148Z,5.93
2018-11-11T07:17:17.261Z,5.20
2018-11-11T07:19:44.452Z,6.80
2018-11-11T07:22:11.527Z,5.37
2018-11-11T07:24:38.612Z,7.47
2018-11-11T07:27:05.736Z,3.80
2018-11-11T07:29:32.820Z,5.50
2018-11-11T07:31:59.904Z,5.30
2018-11-11T07:34:27.008Z,3.67
2018-11-11T07:36:54.523Z,6.90
2018-11-11T07:39:21.612Z,5.73
2018-11-11T07:41:48.699Z,5.53
2018-11-11T07:44:15.798Z,6.33
2018-11-11T07:46:42.888Z,4.30
2018-11-11T07:49:10.009Z,5.47
2018-11-11T07:51:37.125Z,4.77
2018-11-11T07:54:04.454Z,3.80
2018-11-11T07:56:31.544Z,4.40
2018-11-11T07:58:58.632Z,5.50
2018-11-11T08:01:25.727Z,4.13
2018-11-11T08:03:52.818Z,4.23
2018-11-11T08:06:19.905Z,6.17
2018-11-11T08:08:46.992Z,5.70
2018-11-11T08:11:25.692Z,5.50
2018-11-11T08:13:52.789Z,6.00
2018-11-11T08:16:19.869Z,5.57
2018-11-11T08:18:46.956Z,5.43
2018-11-11T08:21:14.044Z,6.37
2018-11-11T08:23:41.152Z,5.97
2018-11-11T08:26:08.233Z,6.60
2018-11-11T08:28:35.321Z,4.30
2018-11-11T08:31:02.448Z,4.27
2018-11-11T08:33:29.595Z,8.60
2018-11-11T08:35:56.678Z,6.13
2018-11-11T08:38:23.782Z,5.43
2018-11-11T08:40:50.881Z,3.60
2018-11-11T08:43:17.990Z,10.47
2018-11-11T08:45:45.073Z,5.60
2018-11-11T08:48:12.171Z,4.57
2018-11-11T08:50:39.262Z,6.27
2018-11-11T08:53:06.372Z,5.30
2018-11-11T08:55:33.468Z,5.10
2018-11-11T08:58:00.582Z,5.43
2018-11-11T09:00:27.658Z,7.30
2018-11-11T09:02:54.748Z,5.03
2018-11-11T09:05:21.851Z,5.00
2018-11-11T09:07:48.929Z,6.80
2018-11-11T09:10:16.048Z,4.83
2018-11-11T09:12:43.149Z,4.73
2018-11-11T09:15:12.557Z,4.40
2018-11-11T09:17:40.196Z,4.83
2018-11-11T09:20:07.656Z,7.10
2018-11-11T09:22:34.915Z,4.97
2018-11-11T09:25:02.015Z,5.47
2018-11-11T09:27:29.104Z,5.30
2018-11-11T09:29:56.205Z,4.67
2018-11-11T09:32:23.305Z,4.50
2018-11-11T09:34:50.409Z,6.37
2018-11-11T09:37:17.576Z,7.87
2018-11-11T09:39:44.714Z,5.03
2018-11-11T09:42:11.813Z,7.27
2018-11-11T09:44:38.909Z,4.10
2018-11-11T09:47:06.019Z,4.73
2018-11-11T09:49:33.110Z,5.40
2018-11-11T09:52:00.201Z,7.23
2018-11-11T09:54:27.289Z,7.17
2018-11-11T09:56:54.365Z,6.03
2018-11-11T09:59:21.569Z,3.37
2018-11-11T10:01:48.711Z,3.77
2018-11-11T10:04:22.070Z,4.40
2018-11-11T10:06:57.379Z,5.00
2018-11-11T10:09:59.452Z,4.07
2018-11-11T10:12:33.906Z,5.03
2018-11-11T10:15:05.824Z,7.90
2018-11-11T10:17:37.980Z,5.43
2018-11-11T10:20:12.232Z,9.10
2018-11-11T10:22:45.861Z,7.23
2018-11-11T10:25:16.741Z,6.73
2018-11-11T10:29:51.838Z,5.03
2018-11-11T10:34:37.586Z,5.33
2018-11-11T10:37:11.765Z,5.60
2018-11-11T10:40:01.500Z,6.70
2018-11-11T10:42:34.456Z,6.33
2018-11-11T10:45:09.720Z,8.57
2018-11-11T10:47:43.103Z,7.23
2018-11-11T10:50:14.521Z,7.23
2018-11-11T10:52:41.614Z,6.60
2018-11-11T10:55:08.773Z,5.23
2018-11-11T10:57:35.849Z,5.63
2018-11-11T11:00:03.026Z,3.93
2018-11-11T11:02:35.888Z,8.23
2018-11-11T11:05:09.657Z,7.37
2018-11-11T11:07:36.756Z,8.23
2018-11-11T11:10:04.601Z,6.00
2018-11-11T11:12:31.707Z,6.80
2018-11-11T11:14:58.789Z,5.63
2018-11-11T11:17:25.884Z,9.13
2018-11-11T11:19:52.997Z,7.73
2018-11-11T11:22:20.108Z,7.73
2018-11-11T11:24:47.212Z,9.13
2018-11-11T11:27:14.369Z,9.27
2018-11-11T11:29:41.446Z,7.30
2018-11-11T11:32:08.680Z,9.93
2018-11-11T11:34:35.664Z,7.80
2018-11-11T11:37:02.768Z,8.63
2018-11-11T11:39:29.887Z,10.53
2018-11-11T11:41:56.976Z,10.43
2018-11-11T11:44:24.073Z,9.00
2018-11-11T11:46:51.161Z,8.17
2018-11-11T11:49:18.272Z,6.07
2018-11-11T11:51:45.397Z,7.10
2018-11-11T11:54:12.482Z,10.83
2018-11-11T11:56:39.586Z,8.87
2018-11-11T11:59:06.678Z,8.33
2018-11-11T12:01:33.763Z,9.77
2018-11-11T12:04:00.877Z,7.50
2018-11-11T12:06:27.952Z,8.87
2018-11-11T12:08:55.039Z,11.00
2018-11-11T12:11:22.226Z,7.30
2018-11-11T12:13:49.340Z,6.93
2018-11-11T12:16:16.426Z,6.37
2018-11-11T12:18:43.513Z,6.63
2018-11-11T12:21:10.599Z,4.37
2018-11-11T12:23:37.681Z,7.30
2018-11-11T12:26:04.881Z,7.07
2018-11-11T12:28:31.966Z,6.83
2018-11-11T12:30:59.133Z,4.00
2018-11-11T12:33:26.162Z,5.13
2018-11-11T12:35:53.261Z,5.50
2018-11-11T12:38:20.362Z,6.63
2018-11-11T12:40:47.465Z,4.97
2018-11-11T12:43:14.574Z,6.13
2018-11-11T12:45:41.685Z,8.07
2018-11-11T12:48:08.794Z,3.33
2018-11-11T12:50:35.905Z,5.97
2018-11-11T12:53:03.017Z,5.63
2018-11-11T12:55:30.259Z,5.40
2018-11-11T12:57:57.268Z,4.77
2018-11-11T13:00:24.357Z,7.20
2018-11-11T13:02:51.468Z,6.17
2018-11-11T13:05:18.557Z,4.30
2018-11-11T13:07:45.646Z,3.90
2018-11-11T13:10:13.353Z,3.73
2018-11-11T13:12:40.816Z,3.70
2018-11-11T13:15:09.520Z,4.70
2018-11-11T13:17:36.956Z,5.00
2018-11-11T13:20:05.805Z,4.27
2018-11-11T13:22:32.936Z,5.77
2018-11-11T13:24:59.980Z,3.97
2018-11-11T13:27:27.084Z,6.17
2018-11-11T13:29:54.184Z,6.83
2018-11-11T13:32:21.289Z,5.37
2018-11-11T13:34:48.392Z,4.67
2018-11-11T13:37:15.472Z,4.57
2018-11-11T13:39:42.581Z,7.40
2018-11-11T13:42:09.667Z,4.57
2018-11-11T13:44:36.779Z,4.17
2018-11-11T13:47:04.491Z,5.53
2018-11-11T13:49:31.577Z,6.47
2018-11-11T13:51:58.685Z,8.20
2018-11-11T13:54:25.817Z,6.90
2018-11-11T13:56:52.941Z,6.73
2018-11-11T13:59:20.032Z,6.10
2018-11-11T14:01:47.220Z,5.53
2018-11-11T14:04:14.288Z,6.00
2018-11-11T14:06:41.389Z,6.13
2018-11-11T14:09:10.491Z,6.03
2018-11-11T14:11:37.665Z,5.40
2018-11-11T14:14:05.693Z,5.17
2018-11-11T14:16:32.834Z,6.80
2018-11-11T14:19:00.081Z,9.10
2018-11-11T14:21:27.041Z,6.33
2018-11-11T14:23:54.169Z,6.17
2018-11-11T14:26:21.327Z,7.50
2018-11-11T14:28:48.350Z,9.40
2018-11-11T14:31:15.462Z,8.03
2018-11-11T14:33:42.576Z,9.07
2018-11-11T14:36:09.696Z,5.60
2018-11-11T14:38:36.960Z,5.03
2018-11-11T14:41:04.548Z,8.37
2018-11-11T14:43:31.644Z,8.63
2018-11-11T14:45:58.765Z,4.53
2018-11-11T14:48:25.856Z,8.07
2018-11-11T14:50:52.956Z,6.20
2018-11-11T14:53:20.041Z,5.70
2018-11-11T14:55:47.140Z,6.27
2018-11-11T14:58:14.276Z,7.00
2018-11-11T15:00:41.356Z,8.83
2018-11-11T15:03:10.664Z,8.93
2018-11-11T15:05:37.779Z,9.03
2018-11-11T15:08:05.067Z,6.43
2018-11-11T15:10:32.149Z,6.63
2018-11-11T15:12:59.326Z,5.37
2018-11-11T15:15:26.404Z,7.20
2018-11-11T15:17:54.384Z,7.13
2018-11-11T15:20:21.799Z,8.13
2018-11-11T15:22:48.838Z,6.03
2018-11-11T15:25:18.227Z,7.77
2018-11-11T15:27:45.968Z,5.53
2018-11-11T15:30:15.582Z,5.67
2018-11-11T15:32:43.436Z,5.67
2018-11-11T15:35:10.565Z,5.33
2018-11-11T15:37:38.008Z,6.90
2018-11-11T15:40:07.508Z,5.93
2018-11-11T15:42:34.609Z,6.07
2018-11-11T15:45:01.762Z,7.37
2018-11-11T15:47:28.861Z,5.90
2018-11-11T15:49:55.944Z,6.97
2018-11-11T15:52:23.349Z,5.57
2018-11-11T15:54:50.404Z,6.33
2018-11-11T15:57:17.476Z,8.30
2018-11-11T15:59:44.560Z,12.37
2018-11-11T16:02:11.668Z,5.83
2018-11-11T16:04:38.792Z,5.30
2018-11-11T16:07:05.881Z,5.87
2018-11-11T16:09:32.976Z,4.03
2018-11-11T16:12:00.164Z,5.83
2018-11-11T16:14:27.300Z,6.57
2018-11-11T16:16:54.396Z,5.47
2018-11-11T16:19:21.471Z,5.80
2018-11-11T16:21:48.581Z,7.17
2018-11-11T16:24:15.664Z,7.30
2018-11-11T16:26:42.753Z,6.20
2018-11-11T16:29:09.852Z,5.67
2018-11-11T16:31:36.952Z,8.20
2018-11-11T16:34:05.362Z,6.20
2018-11-11T16:36:32.554Z,6.67
2018-11-11T16:38:59.549Z,4.97
2018-11-11T16:41:26.808Z,6.27
2018-11-11T16:43:53.774Z,6.77
2018-11-11T16:46:20.883Z,7.33
2018-11-11T16:48:47.943Z,4.37
2018-11-11T16:51:15.056Z,5.27
2018-11-11T16:53:42.136Z,5.90
2018-11-11T16:56:09.276Z,9.53
2018-11-11T16:58:36.360Z,6.60
2018-11-11T17:01:03.565Z,4.80
2018-11-11T17:03:30.632Z,5.33
2018-11-11T17:05:57.713Z,5.90
2018-11-11T17:08:24.801Z,10.03
2018-11-11T17:10:51.980Z,6.37
2018-11-11T17:13:19.170Z,10.43
2018-11-11T17:15:46.262Z,5.97
2018-11-11T17:18:13.366Z,7.20
2018-11-11T17:20:40.539Z,6.10
2018-11-11T17:23:08.160Z,4.80
2018-11-11T17:25:35.287Z,4.67
2018-11-11T17:28:02.477Z,6.90
2018-11-11T17:30:30.777Z,6.43
2018-11-11T17:32:58.683Z,5.37
2018-11-11T17:35:25.741Z,6.17
2018-11-11T17:37:52.856Z,6.93
2018-11-11T17:40:28.196Z,5.50
2018-11-11T17:42:56.008Z,8.80
2018-11-11T17:45:23.113Z,5.70
2018-11-11T17:47:50.937Z,7.17
2018-11-11T17:50:28.268Z,4.83
2018-11-11T17:52:55.410Z,8.67
2018-11-11T17:55:23.524Z,12.93
2018-11-11T17:57:50.556Z,9.60
2018-11-11T18:00:19.896Z,9.10
2018-11-11T18:02:47.345Z,10.57
2018-11-11T18:05:15.821Z,11.47
2018-11-11T18:07:42.935Z,10.67
2018-11-11T18:10:11.969Z,10.03
2018-11-11T18:12:39.113Z,7.80
2018-11-11T18:15:07.574Z,9.10
2018-11-11T18:17:34.672Z,8.40
2018-11-11T18:20:01.805Z,14.57
2018-11-11T18:22:28.888Z,10.63
2018-11-11T18:24:56.009Z,9.77
2018-11-11T18:27:23.188Z,7.20
2018-11-11T18:29:50.199Z,7.37
2018-11-11T18:32:17.286Z,7.63
2018-11-11T18:34:44.385Z,10.90
2018-11-11T18:37:11.485Z,9.40
2018-11-11T18:39:38.568Z,12.27
2018-11-11T18:42:05.681Z,16.50
2018-11-11T18:44:32.766Z,16.13
2018-11-11T18:46:59.849Z,16.83
2018-11-11T18:49:26.929Z,20.27
2018-11-11T18:51:54.016Z,19.67
2018-11-11T18:54:21.109Z,18.67
2018-11-11T18:56:48.242Z,18.07
2018-11-11T18:59:15.359Z,18.27
2018-11-11T19:01:42.460Z,16.17
2018-11-11T19:04:09.533Z,18.40
2018-11-11T19:06:36.616Z,15.93
2018-11-11T19:09:07.533Z,16.63
2018-11-11T19:11:34.628Z,15.10
2018-11-11T19:14:01.725Z,17.43
2018-11-11T19:16:28.797Z,11.23
2018-11-11T19:18:55.930Z,13.70
2018-11-11T19:21:22.985Z,10.43
2018-11-11T19:23:50.176Z,10.57
2018-11-11T19:26:17.140Z,11.60
2018-11-11T19:28:44.232Z,11.53
2018-11-11T19:31:11.315Z,11.80
2018-11-11T19:33:38.461Z,10.37
2018-11-11T19:36:05.497Z,9.93
2018-11-11T19:38:32.585Z,12.27
2018-11-11T19:40:59.688Z,13.07
2018-11-11T19:43:26.814Z,12.67
2018-11-11T19:45:53.896Z,10.90
2018-11-11T19:48:21.085Z,11.77
2018-11-11T19:50:48.089Z,10.43
2018-11-11T19:53:15.252Z,11.90
2018-11-11T19:55:42.341Z,13.60
2018-11-11T19:58:09.441Z,14.37
2018-11-11T20:00:36.552Z,11.90
2018-11-11T20:03:04.639Z,12.93
2018-11-11T20:05:31.781Z,13.03
2018-11-11T20:07:59.925Z,13.23
2018-11-11T20:10:27.777Z,12.60
2018-11-11T20:12:54.888Z,12.03
2018-11-11T20:15:25.377Z,11.70
2018-11-11T20:17:52.508Z,14.03
2018-11-11T20:20:20.868Z,11.10
2018-11-11T20:22:48.324Z,11.87
2018-11-11T20:25:16.404Z,11.13
2018-11-11T20:27:43.871Z,13.50
2018-11-11T20:30:15.845Z,12.53
2018-11-11T20:32:43.057Z,13.37
2018-11-11T20:35:11.794Z,14.50
2018-11-11T20:37:38.869Z,11.53
2018-11-11T20:40:08.153Z,13.80
2018-11-11T20:42:35.249Z,15.10
2018-11-11T20:45:02.821Z,12.57
2018-11-11T20:47:29.896Z,15.20
2018-11-11T20:49:56.991Z,18.50
2018-11-11T20:52:24.072Z,16.33
2018-11-11T20:54:51.197Z,15.07
2018-11-11T20:57:18.337Z,12.67
2018-11-11T20:59:45.428Z,16.40
2018-11-11T21:02:12.516Z,14.63
2018-11-11T21:04:39.604Z,12.70
2018-11-11T21:07:06.688Z,14.40
2018-11-11T21:09:33.776Z,13.87
2018-11-11T21:12:00.858Z,18.30
2018-11-11T21:14:27.940Z,15.17
2018-11-11T21:16:55.024Z,12.07
2018-11-11T21:19:22.135Z,13.70
2018-11-11T21:21:49.214Z,14.27
2018-11-11T21:24:16.318Z,14.13
2018-11-11T21:26:43.429Z,12.30
2018-11-11T21:29:10.530Z,13.50
2018-11-11T21:31:37.625Z,12.60
2018-11-11T21:34:04.960Z,16.63
2018-11-11T21:36:32.065Z,18.90
2018-11-11T21:38:59.158Z,14.13
2018-11-11T21:41:26.262Z,11.60
2018-11-11T21:43:53.349Z,10.90
2018-11-11T21:46:20.469Z,12.83
2018-11-11T21:48:47.567Z,12.33
2018-11-11T21:51:14.640Z,10.60
2018-11-11T21:53:41.732Z,11.50
2018-11-11T21:56:09.083Z,10.37
2018-11-11T21:58:36.220Z,10.63
2018-11-11T22:01:03.829Z,12.03
2018-11-11T22:03:30.940Z,11.20
2018-11-11T22:05:58.053Z,12.23
2018-11-11T22:08:25.157Z,11.63
2018-11-11T22:10:52.829Z,9.53
2018-11-11T22:13:20.632Z,13.10
2018-11-11T22:15:47.732Z,12.90
2018-11-11T22:18:14.933Z,12.27
2018-11-11T22:20:42.017Z,9.57
2018-11-11T22:23:09.120Z,11.43
2018-11-11T22:25:36.196Z,8.57
2018-11-11T22:28:03.615Z,10.37
2018-11-11T22:30:30.684Z,10.70
2018-11-11T22:32:57.776Z,9.37
2018-11-11T22:35:24.890Z,9.33
2018-11-11T22:37:51.976Z,8.30
2018-11-11T22:40:19.070Z,9.70
2018-11-11T22:42:46.173Z,9.43
2018-11-11T22:45:14.308Z,11.80
2018-11-11T22:47:41.430Z,8.27
2018-11-11T22:50:10.571Z,8.30
2018-11-11T22:52:38.387Z,7.10
2018-11-11T22:55:06.029Z,6.50
2018-11-11T22:57:33.149Z,8.43
2018-11-11T23:00:00.368Z,8.57
2018-11-11T23:02:27.460Z,7.25
2018-11-11T23:04:54.536Z,6.67
2018-11-11T23:07:21.632Z,9.67
2018-11-11T23:09:48.716Z,6.53
2018-11-11T23:12:15.802Z,7.17
2018-11-11T23:14:42.904Z,7.73
2018-11-11T23:17:10.009Z,8.77
2018-11-11T23:19:37.098Z,6.37
2018-11-11T23:22:04.281Z,5.70
2018-11-11T23:24:31.371Z,7.63
2018-11-11T23:26:58.537Z,7.40
2018-11-11T23:29:25.647Z,6.17
2018-11-11T23:31:52.724Z,7.47
2018-11-11T23:34:19.836Z,6.83
2018-11-11T23:36:47.006Z,9.40
2018-11-11T23:39:14.036Z,7.73
2018-11-11T23:41:41.184Z,9.53
2018-11-11T23:44:08.771Z,8.85
2018-11-11T23:46:36.221Z,7.97
2018-11-11T23:49:03.320Z,7.80
2018-11-11T23:51:30.416Z,7.33
2018-11-11T23:53:57.510Z,7.83
2018-11-11T23:56:24.602Z,7.77
2018-11-11T23:58:51.684Z,7.37
